sensor_id;sensor_type;location;lat;lon;timestamp;P1;durP1;ratioP1;P2;durP2;ratioP2
22557;SDS011;11445;53.816;8.902;2022-09-13T00:01:00;15.60;;;9.63;;
22557;SDS011;11445;53.816;8.902;2022-09-13T00:03:29;20.50;;;10.65;;
22557;SDS011;11445;53.816;8.902;2022-09-13T00:05:56;15.52;;;10.20;;
22557;SDS011;11445;53.816;8.902;2022-09-13T00:08:25;14.45;;;10.43;;
22557;SDS011;11445;53.816;8.902;2022-09-13T00:10:52;17.90;;;9.98;;
22557;SDS011;11445;53.816;8.902;2022-09-13T00:13:19;17.77;;;10.65;;
22557;SDS011;11445;53.816;8.902;2022-09-13T00:15:47;16.15;;;9.82;;
22557;SDS011;11445;53.816;8.902;2022-09-13T00:18:16;15.13;;;10.23;;
22557;SDS011;11445;53.816;8.902;2022-09-13T00:20:45;16.38;;;10.63;;
22557;SDS011;11445;53.816;8.902;2022-09-13T00:23:12;18.70;;;11.48;;
22557;SDS011;11445;53.816;8.902;2022-09-13T00:25:39;15.55;;;10.88;;
22557;SDS011;11445;53.816;8.902;2022-09-13T00:28:06;14.68;;;11.15;;
22557;SDS011;11445;53.816;8.902;2022-09-13T00:30:33;17.75;;;12.10;;
22557;SDS011;11445;53.816;8.902;2022-09-13T00:33:00;16.95;;;11.57;;
22557;SDS011;11445;53.816;8.902;2022-09-13T00:35:28;20.88;;;12.02;;
22557;SDS011;11445;53.816;8.902;2022-09-13T00:37:59;17.90;;;12.63;;
22557;SDS011;11445;53.816;8.902;2022-09-13T00:40:26;20.20;;;12.70;;
22557;SDS011;11445;53.816;8.902;2022-09-13T00:42:54;24.92;;;12.48;;
22557;SDS011;11445;53.816;8.902;2022-09-13T00:45:21;20.60;;;12.70;;
22557;SDS011;11445;53.816;8.902;2022-09-13T00:47:50;18.20;;;11.70;;
22557;SDS011;11445;53.816;8.902;2022-09-13T00:50:21;17.88;;;11.85;;
22557;SDS011;11445;53.816;8.902;2022-09-13T00:52:53;22.45;;;12.50;;
22557;SDS011;11445;53.816;8.902;2022-09-13T00:55:26;18.38;;;13.20;;
22557;SDS011;11445;53.816;8.902;2022-09-13T00:57:57;23.45;;;13.75;;
22557;SDS011;11445;53.816;8.902;2022-09-13T01:00:27;20.92;;;13.48;;
22557;SDS011;11445;53.816;8.902;2022-09-13T01:02:56;20.50;;;12.73;;
22557;SDS011;11445;53.816;8.902;2022-09-13T01:05:27;20.20;;;13.90;;
22557;SDS011;11445;53.816;8.902;2022-09-13T01:07:58;21.30;;;13.82;;
22557;SDS011;11445;53.816;8.902;2022-09-13T01:10:27;21.83;;;14.65;;
22557;SDS011;11445;53.816;8.902;2022-09-13T01:12:57;26.83;;;14.02;;
22557;SDS011;11445;53.816;8.902;2022-09-13T01:15:35;25.80;;;14.00;;
22557;SDS011;11445;53.816;8.902;2022-09-13T01:18:02;23.40;;;13.65;;
22557;SDS011;11445;53.816;8.902;2022-09-13T01:20:35;22.33;;;13.70;;
22557;SDS011;11445;53.816;8.902;2022-09-13T01:23:16;20.42;;;13.30;;
22557;SDS011;11445;53.816;8.902;2022-09-13T01:29:10;19.38;;;13.07;;
22557;SDS011;11445;53.816;8.902;2022-09-13T01:32:00;20.40;;;13.07;;
22557;SDS011;11445;53.816;8.902;2022-09-13T01:34:36;19.13;;;13.18;;
22557;SDS011;11445;53.816;8.902;2022-09-13T01:37:16;21.10;;;13.38;;
22557;SDS011;11445;53.816;8.902;2022-09-13T01:39:57;19.60;;;12.50;;
22557;SDS011;11445;53.816;8.902;2022-09-13T01:42:47;19.38;;;13.25;;
22557;SDS011;11445;53.816;8.902;2022-09-13T01:45:27;19.88;;;13.32;;
22557;SDS011;11445;53.816;8.902;2022-09-13T01:48:05;22.98;;;12.88;;
22557;SDS011;11445;53.816;8.902;2022-09-13T01:50:39;22.00;;;13.13;;
22557;SDS011;11445;53.816;8.902;2022-09-13T01:53:11;19.90;;;13.77;;
22557;SDS011;11445;53.816;8.902;2022-09-13T01:55:47;23.95;;;13.30;;
22557;SDS011;11445;53.816;8.902;2022-09-13T01:58:21;21.65;;;12.90;;
22557;SDS011;11445;53.816;8.902;2022-09-13T02:00:53;20.35;;;13.68;;
22557;SDS011;11445;53.816;8.902;2022-09-13T02:03:32;23.52;;;15.00;;
22557;SDS011;11445;53.816;8.902;2022-09-13T02:06:04;21.05;;;14.45;;
22557;SDS011;11445;53.816;8.902;2022-09-13T02:08:36;21.98;;;13.57;;
22557;SDS011;11445;53.816;8.902;2022-09-13T02:11:07;23.58;;;14.32;;
22557;SDS011;11445;53.816;8.902;2022-09-13T02:13:37;23.35;;;14.98;;
22557;SDS011;11445;53.816;8.902;2022-09-13T02:16:08;23.00;;;15.43;;
22557;SDS011;11445;53.816;8.902;2022-09-13T02:18:41;26.80;;;16.33;;
22557;SDS011;11445;53.816;8.902;2022-09-13T02:21:13;26.50;;;15.48;;
22557;SDS011;11445;53.816;8.902;2022-09-13T02:23:45;25.85;;;15.68;;
22557;SDS011;11445;53.816;8.902;2022-09-13T02:26:15;25.80;;;16.35;;
22557;SDS011;11445;53.816;8.902;2022-09-13T02:28:46;26.65;;;16.88;;
22557;SDS011;11445;53.816;8.902;2022-09-13T02:31:18;28.52;;;17.67;;
22557;SDS011;11445;53.816;8.902;2022-09-13T02:33:53;28.58;;;16.83;;
22557;SDS011;11445;53.816;8.902;2022-09-13T02:36:23;26.73;;;16.85;;
22557;SDS011;11445;53.816;8.902;2022-09-13T02:38:54;27.30;;;17.17;;
22557;SDS011;11445;53.816;8.902;2022-09-13T02:41:27;26.45;;;16.85;;
22557;SDS011;11445;53.816;8.902;2022-09-13T02:44:00;30.05;;;17.00;;
22557;SDS011;11445;53.816;8.902;2022-09-13T02:46:42;24.65;;;15.98;;
22557;SDS011;11445;53.816;8.902;2022-09-13T02:49:22;25.90;;;17.20;;
22557;SDS011;11445;53.816;8.902;2022-09-13T02:51:53;26.98;;;16.65;;
22557;SDS011;11445;53.816;8.902;2022-09-13T02:54:24;31.88;;;17.00;;
22557;SDS011;11445;53.816;8.902;2022-09-13T02:56:58;27.42;;;15.88;;
22557;SDS011;11445;53.816;8.902;2022-09-13T02:59:30;23.08;;;14.63;;
22557;SDS011;11445;53.816;8.902;2022-09-13T03:01:59;22.15;;;13.98;;
22557;SDS011;11445;53.816;8.902;2022-09-13T03:04:30;28.50;;;13.85;;
22557;SDS011;11445;53.816;8.902;2022-09-13T03:06:58;23.98;;;13.27;;
22557;SDS011;11445;53.816;8.902;2022-09-13T03:09:25;20.08;;;12.45;;
22557;SDS011;11445;53.816;8.902;2022-09-13T03:12:05;16.10;;;11.80;;
22557;SDS011;11445;53.816;8.902;2022-09-13T03:14:45;20.73;;;11.40;;
22557;SDS011;11445;53.816;8.902;2022-09-13T03:17:22;19.48;;;11.27;;
22557;SDS011;11445;53.816;8.902;2022-09-13T03:22:59;20.75;;;9.88;;
22557;SDS011;11445;53.816;8.902;2022-09-13T03:26:04;16.70;;;9.45;;
22557;SDS011;11445;53.816;8.902;2022-09-13T03:28:48;20.02;;;8.52;;
22557;SDS011;11445;53.816;8.902;2022-09-13T03:31:31;14.68;;;7.20;;
22557;SDS011;11445;53.816;8.902;2022-09-13T03:34:04;8.80;;;4.33;;
22557;SDS011;11445;53.816;8.902;2022-09-13T03:36:37;10.23;;;3.55;;
22557;SDS011;11445;53.816;8.902;2022-09-13T03:39:11;6.00;;;2.50;;
22557;SDS011;11445;53.816;8.902;2022-09-13T03:41:47;6.03;;;1.83;;
22557;SDS011;11445;53.816;8.902;2022-09-13T03:44:18;4.25;;;2.00;;
22557;SDS011;11445;53.816;8.902;2022-09-13T03:46:48;5.30;;;1.80;;
22557;SDS011;11445;53.816;8.902;2022-09-13T03:49:20;6.70;;;1.75;;
22557;SDS011;11445;53.816;8.902;2022-09-13T03:51:51;6.80;;;1.85;;
22557;SDS011;11445;53.816;8.902;2022-09-13T03:54:19;7.88;;;1.40;;
22557;SDS011;11445;53.816;8.902;2022-09-13T03:59:34;8.60;;;2.63;;
22557;SDS011;11445;53.816;8.902;2022-09-13T04:02:03;7.25;;;1.88;;
22557;SDS011;11445;53.816;8.902;2022-09-13T04:04:30;5.47;;;1.33;;
22557;SDS011;11445;53.816;8.902;2022-09-13T04:06:59;6.22;;;1.33;;
22557;SDS011;11445;53.816;8.902;2022-09-13T04:09:28;6.05;;;1.33;;
22557;SDS011;11445;53.816;8.902;2022-09-13T04:11:55;9.32;;;1.38;;
22557;SDS011;11445;53.816;8.902;2022-09-13T04:14:23;4.57;;;0.95;;
22557;SDS011;11445;53.816;8.902;2022-09-13T04:16:51;5.95;;;1.55;;
22557;SDS011;11445;53.816;8.902;2022-09-13T04:19:18;15.02;;;1.40;;
22557;SDS011;11445;53.816;8.902;2022-09-13T04:21:46;5.15;;;1.17;;
22557;SDS011;11445;53.816;8.902;2022-09-13T04:24:15;2.97;;;1.40;;
22557;SDS011;11445;53.816;8.902;2022-09-13T04:26:43;6.43;;;1.33;;
22557;SDS011;11445;53.816;8.902;2022-09-13T04:29:10;9.00;;;1.38;;
22557;SDS011;11445;53.816;8.902;2022-09-13T04:31:37;11.13;;;1.45;;
22557;SDS011;11445;53.816;8.902;2022-09-13T04:34:04;6.72;;;1.48;;
22557;SDS011;11445;53.816;8.902;2022-09-13T04:36:32;5.70;;;1.30;;
22557;SDS011;11445;53.816;8.902;2022-09-13T04:38:59;8.30;;;1.27;;
22557;SDS011;11445;53.816;8.902;2022-09-13T04:41:28;7.68;;;1.42;;
22557;SDS011;11445;53.816;8.902;2022-09-13T04:43:56;7.88;;;1.00;;
22557;SDS011;11445;53.816;8.902;2022-09-13T04:46:23;4.63;;;1.23;;
22557;SDS011;11445;53.816;8.902;2022-09-13T04:48:50;10.30;;;1.60;;
22557;SDS011;11445;53.816;8.902;2022-09-13T04:51:17;7.63;;;1.35;;
22557;SDS011;11445;53.816;8.902;2022-09-13T04:53:45;6.78;;;1.63;;
22557;SDS011;11445;53.816;8.902;2022-09-13T04:56:16;6.30;;;1.45;;
22557;SDS011;11445;53.816;8.902;2022-09-13T04:58:45;7.53;;;1.58;;
22557;SDS011;11445;53.816;8.902;2022-09-13T05:01:12;11.43;;;1.58;;
22557;SDS011;11445;53.816;8.902;2022-09-13T05:03:39;6.22;;;1.13;;
22557;SDS011;11445;53.816;8.902;2022-09-13T05:06:07;9.57;;;1.30;;
22557;SDS011;11445;53.816;8.902;2022-09-13T05:08:36;11.52;;;1.55;;
22557;SDS011;11445;53.816;8.902;2022-09-13T05:11:03;8.77;;;1.38;;
22557;SDS011;11445;53.816;8.902;2022-09-13T05:13:32;4.07;;;1.02;;
22557;SDS011;11445;53.816;8.902;2022-09-13T05:16:02;6.70;;;1.08;;
22557;SDS011;11445;53.816;8.902;2022-09-13T05:18:33;8.30;;;1.48;;
22557;SDS011;11445;53.816;8.902;2022-09-13T05:21:02;7.30;;;1.13;;
22557;SDS011;11445;53.816;8.902;2022-09-13T05:23:30;8.27;;;1.08;;
22557;SDS011;11445;53.816;8.902;2022-09-13T05:25:59;7.25;;;1.60;;
22557;SDS011;11445;53.816;8.902;2022-09-13T05:28:28;14.90;;;1.27;;
22557;SDS011;11445;53.816;8.902;2022-09-13T05:30:57;8.73;;;1.45;;
22557;SDS011;11445;53.816;8.902;2022-09-13T05:33:28;7.75;;;1.05;;
22557;SDS011;11445;53.816;8.902;2022-09-13T05:35:57;5.10;;;0.90;;
22557;SDS011;11445;53.816;8.902;2022-09-13T05:38:24;7.55;;;1.67;;
22557;SDS011;11445;53.816;8.902;2022-09-13T05:40:52;4.80;;;1.05;;
22557;SDS011;11445;53.816;8.902;2022-09-13T05:43:21;11.60;;;1.33;;
22557;SDS011;11445;53.816;8.902;2022-09-13T05:45:48;6.57;;;1.85;;
22557;SDS011;11445;53.816;8.902;2022-09-13T05:48:15;10.57;;;1.50;;
22557;SDS011;11445;53.816;8.902;2022-09-13T05:50:44;10.30;;;1.30;;
22557;SDS011;11445;53.816;8.902;2022-09-13T05:53:11;11.38;;;1.67;;
22557;SDS011;11445;53.816;8.902;2022-09-13T05:55:38;14.07;;;1.80;;
22557;SDS011;11445;53.816;8.902;2022-09-13T05:58:05;10.73;;;1.65;;
22557;SDS011;11445;53.816;8.902;2022-09-13T06:00:32;15.95;;;2.08;;
22557;SDS011;11445;53.816;8.902;2022-09-13T06:03:00;12.00;;;1.85;;
22557;SDS011;11445;53.816;8.902;2022-09-13T06:05:27;17.15;;;2.08;;
22557;SDS011;11445;53.816;8.902;2022-09-13T06:07:55;15.80;;;1.50;;
22557;SDS011;11445;53.816;8.902;2022-09-13T06:10:22;17.58;;;1.90;;
22557;SDS011;11445;53.816;8.902;2022-09-13T06:12:49;16.10;;;2.30;;
22557;SDS011;11445;53.816;8.902;2022-09-13T06:15:16;11.30;;;1.80;;
22557;SDS011;11445;53.816;8.902;2022-09-13T06:17:43;13.60;;;2.03;;
22557;SDS011;11445;53.816;8.902;2022-09-13T06:20:11;15.00;;;2.33;;
22557;SDS011;11445;53.816;8.902;2022-09-13T06:22:38;19.30;;;2.33;;
22557;SDS011;11445;53.816;8.902;2022-09-13T06:25:07;7.28;;;1.52;;
22557;SDS011;11445;53.816;8.902;2022-09-13T06:27:34;11.13;;;1.70;;
22557;SDS011;11445;53.816;8.902;2022-09-13T06:30:01;11.23;;;1.67;;
22557;SDS011;11445;53.816;8.902;2022-09-13T06:32:29;12.63;;;1.90;;
22557;SDS011;11445;53.816;8.902;2022-09-13T06:34:56;12.88;;;1.40;;
22557;SDS011;11445;53.816;8.902;2022-09-13T06:37:24;12.13;;;1.50;;
22557;SDS011;11445;53.816;8.902;2022-09-13T06:39:51;13.35;;;1.45;;
22557;SDS011;11445;53.816;8.902;2022-09-13T06:42:19;11.13;;;1.15;;
22557;SDS011;11445;53.816;8.902;2022-09-13T06:44:46;6.60;;;1.30;;
22557;SDS011;11445;53.816;8.902;2022-09-13T06:47:13;6.60;;;1.30;;
22557;SDS011;11445;53.816;8.902;2022-09-13T06:49:41;12.07;;;1.48;;
22557;SDS011;11445;53.816;8.902;2022-09-13T06:52:08;12.68;;;2.15;;
22557;SDS011;11445;53.816;8.902;2022-09-13T06:54:36;11.55;;;1.58;;
22557;SDS011;11445;53.816;8.902;2022-09-13T06:57:03;17.00;;;1.45;;
22557;SDS011;11445;53.816;8.902;2022-09-13T06:59:32;13.25;;;1.65;;
22557;SDS011;11445;53.816;8.902;2022-09-13T07:01:59;12.73;;;1.23;;
22557;SDS011;11445;53.816;8.902;2022-09-13T07:04:27;10.55;;;1.38;;
22557;SDS011;11445;53.816;8.902;2022-09-13T07:06:56;7.50;;;2.15;;
22557;SDS011;11445;53.816;8.902;2022-09-13T07:09:23;9.57;;;1.20;;
22557;SDS011;11445;53.816;8.902;2022-09-13T07:11:52;10.48;;;1.40;;
22557;SDS011;11445;53.816;8.902;2022-09-13T07:14:21;7.50;;;1.30;;
22557;SDS011;11445;53.816;8.902;2022-09-13T07:16:51;9.63;;;1.30;;
22557;SDS011;11445;53.816;8.902;2022-09-13T07:19:19;8.07;;;1.30;;
22557;SDS011;11445;53.816;8.902;2022-09-13T07:21:48;6.53;;;1.13;;
22557;SDS011;11445;53.816;8.902;2022-09-13T07:24:15;5.05;;;1.30;;
22557;SDS011;11445;53.816;8.902;2022-09-13T07:26:43;7.15;;;1.40;;
22557;SDS011;11445;53.816;8.902;2022-09-13T07:29:11;6.85;;;1.25;;
22557;SDS011;11445;53.816;8.902;2022-09-13T07:31:40;10.27;;;1.00;;
22557;SDS011;11445;53.816;8.902;2022-09-13T07:34:12;9.20;;;1.38;;
22557;SDS011;11445;53.816;8.902;2022-09-13T07:36:40;6.75;;;1.10;;
22557;SDS011;11445;53.816;8.902;2022-09-13T07:39:09;14.95;;;1.55;;
22557;SDS011;11445;53.816;8.902;2022-09-13T07:41:36;7.15;;;1.20;;
22557;SDS011;11445;53.816;8.902;2022-09-13T07:44:03;7.47;;;1.30;;
22557;SDS011;11445;53.816;8.902;2022-09-13T07:46:32;11.75;;;1.30;;
22557;SDS011;11445;53.816;8.902;2022-09-13T07:49:07;11.95;;;1.58;;
22557;SDS011;11445;53.816;8.902;2022-09-13T07:51:36;16.90;;;2.40;;
22557;SDS011;11445;53.816;8.902;2022-09-13T07:54:05;6.78;;;1.27;;
22557;SDS011;11445;53.816;8.902;2022-09-13T07:56:36;4.70;;;0.95;;
22557;SDS011;11445;53.816;8.902;2022-09-13T07:59:05;9.23;;;1.10;;
22557;SDS011;11445;53.816;8.902;2022-09-13T08:01:37;6.75;;;1.33;;
22557;SDS011;11445;53.816;8.902;2022-09-13T08:04:06;11.68;;;1.60;;
22557;SDS011;11445;53.816;8.902;2022-09-13T08:06:36;7.53;;;0.88;;
22557;SDS011;11445;53.816;8.902;2022-09-13T08:09:04;10.60;;;1.00;;
22557;SDS011;11445;53.816;8.902;2022-09-13T08:11:32;12.98;;;1.30;;
22557;SDS011;11445;53.816;8.902;2022-09-13T08:14:01;7.22;;;0.90;;
22557;SDS011;11445;53.816;8.902;2022-09-13T08:16:29;10.77;;;1.20;;
22557;SDS011;11445;53.816;8.902;2022-09-13T08:18:57;8.00;;;1.30;;
22557;SDS011;11445;53.816;8.902;2022-09-13T08:21:26;5.47;;;0.90;;
22557;SDS011;11445;53.816;8.902;2022-09-13T08:23:58;8.05;;;1.05;;
22557;SDS011;11445;53.816;8.902;2022-09-13T08:26:25;9.00;;;1.15;;
22557;SDS011;11445;53.816;8.902;2022-09-13T08:28:54;6.82;;;1.42;;
22557;SDS011;11445;53.816;8.902;2022-09-13T08:31:22;8.45;;;1.27;;
22557;SDS011;11445;53.816;8.902;2022-09-13T08:33:49;7.10;;;1.15;;
22557;SDS011;11445;53.816;8.902;2022-09-13T08:36:17;9.00;;;1.17;;
22557;SDS011;11445;53.816;8.902;2022-09-13T08:38:48;6.03;;;0.73;;
22557;SDS011;11445;53.816;8.902;2022-09-13T08:41:22;5.15;;;1.10;;
22557;SDS011;11445;53.816;8.902;2022-09-13T08:44:07;9.70;;;0.98;;
22557;SDS011;11445;53.816;8.902;2022-09-13T08:46:39;9.23;;;1.40;;
22557;SDS011;11445;53.816;8.902;2022-09-13T08:49:10;5.68;;;0.77;;
22557;SDS011;11445;53.816;8.902;2022-09-13T08:51:44;7.05;;;1.45;;
22557;SDS011;11445;53.816;8.902;2022-09-13T08:54:13;7.47;;;1.20;;
22557;SDS011;11445;53.816;8.902;2022-09-13T08:56:45;9.75;;;1.42;;
22557;SDS011;11445;53.816;8.902;2022-09-13T08:59:23;8.15;;;0.80;;
22557;SDS011;11445;53.816;8.902;2022-09-13T09:02:02;5.45;;;1.00;;
22557;SDS011;11445;53.816;8.902;2022-09-13T09:04:41;11.88;;;0.90;;
22557;SDS011;11445;53.816;8.902;2022-09-13T09:07:16;6.93;;;1.00;;
22557;SDS011;11445;53.816;8.902;2022-09-13T09:09:48;10.52;;;1.35;;
22557;SDS011;11445;53.816;8.902;2022-09-13T09:12:21;8.13;;;1.08;;
22557;SDS011;11445;53.816;8.902;2022-09-13T09:15:00;5.47;;;1.23;;
22557;SDS011;11445;53.816;8.902;2022-09-13T09:17:31;9.02;;;0.90;;
22557;SDS011;11445;53.816;8.902;2022-09-13T09:20:09;5.55;;;1.45;;
22557;SDS011;11445;53.816;8.902;2022-09-13T09:22:48;4.43;;;1.02;;
22557;SDS011;11445;53.816;8.902;2022-09-13T09:25:16;5.43;;;1.27;;
22557;SDS011;11445;53.816;8.902;2022-09-13T09:27:47;3.85;;;0.88;;
22557;SDS011;11445;53.816;8.902;2022-09-13T09:30:14;8.82;;;1.33;;
22557;SDS011;11445;53.816;8.902;2022-09-13T09:35:48;9.40;;;1.33;;
22557;SDS011;11445;53.816;8.902;2022-09-13T09:38:37;5.57;;;1.38;;
22557;SDS011;11445;53.816;8.902;2022-09-13T09:41:10;8.27;;;1.20;;
22557;SDS011;11445;53.816;8.902;2022-09-13T09:43:45;6.53;;;1.33;;
22557;SDS011;11445;53.816;8.902;2022-09-13T09:46:18;9.23;;;1.45;;
22557;SDS011;11445;53.816;8.902;2022-09-13T09:48:52;7.15;;;0.95;;
22557;SDS011;11445;53.816;8.902;2022-09-13T09:51:22;9.13;;;1.42;;
22557;SDS011;11445;53.816;8.902;2022-09-13T09:53:54;7.70;;;1.10;;
22557;SDS011;11445;53.816;8.902;2022-09-13T09:56:28;11.25;;;1.75;;
22557;SDS011;11445;53.816;8.902;2022-09-13T09:58:58;9.38;;;1.65;;
22557;SDS011;11445;53.816;8.902;2022-09-13T10:01:27;14.77;;;1.25;;
22557;SDS011;11445;53.816;8.902;2022-09-13T10:04:01;7.13;;;0.82;;
22557;SDS011;11445;53.816;8.902;2022-09-13T10:06:32;11.68;;;1.27;;
22557;SDS011;11445;53.816;8.902;2022-09-13T10:09:01;8.50;;;1.38;;
22557;SDS011;11445;53.816;8.902;2022-09-13T10:11:42;10.57;;;1.42;;
22557;SDS011;11445;53.816;8.902;2022-09-13T10:14:27;12.32;;;1.98;;
22557;SDS011;11445;53.816;8.902;2022-09-13T10:17:04;10.88;;;1.77;;
22557;SDS011;11445;53.816;8.902;2022-09-13T10:19:50;12.80;;;1.48;;
22557;SDS011;11445;53.816;8.902;2022-09-13T10:22:18;10.88;;;1.50;;
22557;SDS011;11445;53.816;8.902;2022-09-13T10:24:46;8.95;;;1.25;;
22557;SDS011;11445;53.816;8.902;2022-09-13T10:27:18;10.80;;;1.17;;
22557;SDS011;11445;53.816;8.902;2022-09-13T10:29:50;7.80;;;1.40;;
22557;SDS011;11445;53.816;8.902;2022-09-13T10:32:21;11.30;;;1.30;;
22557;SDS011;11445;53.816;8.902;2022-09-13T10:34:48;10.55;;;1.08;;
22557;SDS011;11445;53.816;8.902;2022-09-13T10:37:17;9.98;;;1.23;;
22557;SDS011;11445;53.816;8.902;2022-09-13T10:39:54;5.47;;;0.75;;
22557;SDS011;11445;53.816;8.902;2022-09-13T10:42:25;13.55;;;1.40;;
22557;SDS011;11445;53.816;8.902;2022-09-13T10:44:57;11.85;;;1.38;;
22557;SDS011;11445;53.816;8.902;2022-09-13T10:47:28;7.55;;;1.27;;
22557;SDS011;11445;53.816;8.902;2022-09-13T10:50:09;8.55;;;1.13;;
22557;SDS011;11445;53.816;8.902;2022-09-13T10:52:43;6.53;;;1.10;;
22557;SDS011;11445;53.816;8.902;2022-09-13T10:55:25;8.70;;;1.45;;
22557;SDS011;11445;53.816;8.902;2022-09-13T10:58:18;9.93;;;1.40;;
22557;SDS011;11445;53.816;8.902;2022-09-13T11:03:52;6.90;;;1.10;;
22557;SDS011;11445;53.816;8.902;2022-09-13T11:06:40;12.45;;;1.42;;
22557;SDS011;11445;53.816;8.902;2022-09-13T11:09:12;11.45;;;1.27;;
22557;SDS011;11445;53.816;8.902;2022-09-13T11:11:45;8.48;;;1.20;;
22557;SDS011;11445;53.816;8.902;2022-09-13T11:14:23;12.70;;;1.13;;
22557;SDS011;11445;53.816;8.902;2022-09-13T11:17:04;13.43;;;1.40;;
22557;SDS011;11445;53.816;8.902;2022-09-13T11:22:51;5.78;;;0.90;;
22557;SDS011;11445;53.816;8.902;2022-09-13T11:28:21;8.88;;;1.02;;
22557;SDS011;11445;53.816;8.902;2022-09-13T11:31:01;6.88;;;1.15;;
22557;SDS011;11445;53.816;8.902;2022-09-13T11:33:45;10.65;;;1.38;;
22557;SDS011;11445;53.816;8.902;2022-09-13T11:36:32;8.10;;;1.25;;
22557;SDS011;11445;53.816;8.902;2022-09-13T11:39:14;9.68;;;1.25;;
22557;SDS011;11445;53.816;8.902;2022-09-13T11:41:51;4.10;;;0.95;;
22557;SDS011;11445;53.816;8.902;2022-09-13T11:44:38;8.27;;;1.38;;
22557;SDS011;11445;53.816;8.902;2022-09-13T11:47:17;5.72;;;1.05;;
22557;SDS011;11445;53.816;8.902;2022-09-13T11:52:52;5.13;;;1.23;;
22557;SDS011;11445;53.816;8.902;2022-09-13T11:55:29;9.77;;;1.63;;
22557;SDS011;11445;53.816;8.902;2022-09-13T11:58:01;11.60;;;1.42;;
22557;SDS011;11445;53.816;8.902;2022-09-13T12:00:31;5.82;;;1.20;;
22557;SDS011;11445;53.816;8.902;2022-09-13T12:03:08;14.27;;;2.10;;
22557;SDS011;11445;53.816;8.902;2022-09-13T12:05:42;6.05;;;1.45;;
22557;SDS011;11445;53.816;8.902;2022-09-13T12:08:17;13.93;;;1.50;;
22557;SDS011;11445;53.816;8.902;2022-09-13T12:10:47;11.50;;;1.52;;
22557;SDS011;11445;53.816;8.902;2022-09-13T12:13:20;10.80;;;1.42;;
22557;SDS011;11445;53.816;8.902;2022-09-13T12:15:50;13.23;;;1.52;;
22557;SDS011;11445;53.816;8.902;2022-09-13T12:18:21;9.38;;;1.67;;
22557;SDS011;11445;53.816;8.902;2022-09-13T12:20:52;19.27;;;1.75;;
22557;SDS011;11445;53.816;8.902;2022-09-13T12:23:25;13.57;;;1.52;;
22557;SDS011;11445;53.816;8.902;2022-09-13T12:25:57;9.98;;;1.75;;
22557;SDS011;11445;53.816;8.902;2022-09-13T12:28:28;12.52;;;1.38;;
22557;SDS011;11445;53.816;8.902;2022-09-13T12:31:01;9.70;;;1.50;;
22557;SDS011;11445;53.816;8.902;2022-09-13T12:33:31;12.68;;;1.95;;
22557;SDS011;11445;53.816;8.902;2022-09-13T12:36:06;10.05;;;1.30;;
22557;SDS011;11445;53.816;8.902;2022-09-13T12:39:06;10.45;;;1.20;;
22557;SDS011;11445;53.816;8.902;2022-09-13T12:41:56;11.18;;;1.40;;
22557;SDS011;11445;53.816;8.902;2022-09-13T12:44:40;11.68;;;1.90;;
22557;SDS011;11445;53.816;8.902;2022-09-13T12:47:37;8.75;;;1.20;;
22557;SDS011;11445;53.816;8.902;2022-09-13T12:50:30;14.05;;;1.38;;
22557;SDS011;11445;53.816;8.902;2022-09-13T12:53:17;5.35;;;1.30;;
22557;SDS011;11445;53.816;8.902;2022-09-13T12:56:00;18.42;;;1.63;;
22557;SDS011;11445;53.816;8.902;2022-09-13T12:59:01;13.50;;;1.77;;
22557;SDS011;11445;53.816;8.902;2022-09-13T13:01:43;11.65;;;1.50;;
22557;SDS011;11445;53.816;8.902;2022-09-13T13:04:13;8.48;;;1.50;;
22557;SDS011;11445;53.816;8.902;2022-09-13T13:06:46;9.93;;;1.35;;
22557;SDS011;11445;53.816;8.902;2022-09-13T13:09:22;14.23;;;1.48;;
22557;SDS011;11445;53.816;8.902;2022-09-13T13:11:55;13.73;;;1.35;;
22557;SDS011;11445;53.816;8.902;2022-09-13T13:14:28;14.40;;;1.30;;
22557;SDS011;11445;53.816;8.902;2022-09-13T13:23:18;8.15;;;1.10;;
22557;SDS011;11445;53.816;8.902;2022-09-13T13:26:01;7.65;;;1.55;;
22557;SDS011;11445;53.816;8.902;2022-09-13T13:28:51;5.47;;;1.08;;
22557;SDS011;11445;53.816;8.902;2022-09-13T13:31:43;10.05;;;1.63;;
22557;SDS011;11445;53.816;8.902;2022-09-13T13:34:36;10.90;;;1.50;;
22557;SDS011;11445;53.816;8.902;2022-09-13T13:40:09;11.43;;;1.98;;
22557;SDS011;11445;53.816;8.902;2022-09-13T13:42:45;17.13;;;2.15;;
22557;SDS011;11445;53.816;8.902;2022-09-13T13:45:19;8.75;;;1.60;;
22557;SDS011;11445;53.816;8.902;2022-09-13T13:50:35;8.30;;;1.52;;
22557;SDS011;11445;53.816;8.902;2022-09-13T13:53:47;16.20;;;1.80;;
22557;SDS011;11445;53.816;8.902;2022-09-13T13:56:18;14.20;;;2.08;;
22557;SDS011;11445;53.816;8.902;2022-09-13T13:58:49;13.87;;;1.90;;
22557;SDS011;11445;53.816;8.902;2022-09-13T14:01:23;6.60;;;1.50;;
22557;SDS011;11445;53.816;8.902;2022-09-13T14:07:03;7.28;;;0.93;;
22557;SDS011;11445;53.816;8.902;2022-09-13T14:09:39;11.10;;;0.88;;
22557;SDS011;11445;53.816;8.902;2022-09-13T14:12:16;5.90;;;0.90;;
22557;SDS011;11445;53.816;8.902;2022-09-13T14:18:05;5.68;;;0.80;;
22557;SDS011;11445;53.816;8.902;2022-09-13T14:20:56;7.90;;;1.10;;
22557;SDS011;11445;53.816;8.902;2022-09-13T14:23:27;5.95;;;0.88;;
22557;SDS011;11445;53.816;8.902;2022-09-13T14:25:55;11.18;;;1.20;;
22557;SDS011;11445;53.816;8.902;2022-09-13T14:28:24;5.50;;;0.73;;
22557;SDS011;11445;53.816;8.902;2022-09-13T14:30:53;7.45;;;0.90;;
22557;SDS011;11445;53.816;8.902;2022-09-13T14:33:24;4.57;;;1.23;;
22557;SDS011;11445;53.816;8.902;2022-09-13T14:35:57;6.68;;;0.80;;
22557;SDS011;11445;53.816;8.902;2022-09-13T14:38:26;3.60;;;0.90;;
22557;SDS011;11445;53.816;8.902;2022-09-13T14:40:58;7.72;;;1.10;;
22557;SDS011;11445;53.816;8.902;2022-09-13T14:43:28;6.38;;;1.00;;
22557;SDS011;11445;53.816;8.902;2022-09-13T14:45:57;3.58;;;0.77;;
22557;SDS011;11445;53.816;8.902;2022-09-13T14:48:30;8.70;;;1.03;;
22557;SDS011;11445;53.816;8.902;2022-09-13T14:51:01;3.80;;;0.93;;
22557;SDS011;11445;53.816;8.902;2022-09-13T14:53:33;5.78;;;1.23;;
22557;SDS011;11445;53.816;8.902;2022-09-13T14:56:01;7.25;;;1.10;;
22557;SDS011;11445;53.816;8.902;2022-09-13T14:58:32;5.57;;;0.70;;
22557;SDS011;11445;53.816;8.902;2022-09-13T15:01:09;6.50;;;1.25;;
22557;SDS011;11445;53.816;8.902;2022-09-13T15:03:41;9.38;;;1.23;;
22557;SDS011;11445;53.816;8.902;2022-09-13T15:06:18;9.52;;;1.23;;
22557;SDS011;11445;53.816;8.902;2022-09-13T15:08:48;7.90;;;1.08;;
22557;SDS011;11445;53.816;8.902;2022-09-13T15:11:25;6.78;;;1.17;;
22557;SDS011;11445;53.816;8.902;2022-09-13T15:14:20;11.05;;;1.60;;
22557;SDS011;11445;53.816;8.902;2022-09-13T15:16:50;12.38;;;1.38;;
22557;SDS011;11445;53.816;8.902;2022-09-13T15:19:30;7.53;;;0.98;;
22557;SDS011;11445;53.816;8.902;2022-09-13T15:22:11;11.95;;;1.40;;
22557;SDS011;11445;53.816;8.902;2022-09-13T15:24:45;6.00;;;1.50;;
22557;SDS011;11445;53.816;8.902;2022-09-13T15:27:21;8.23;;;0.95;;
22557;SDS011;11445;53.816;8.902;2022-09-13T15:29:52;7.47;;;0.82;;
22557;SDS011;11445;53.816;8.902;2022-09-13T15:32:22;12.60;;;1.05;;
22557;SDS011;11445;53.816;8.902;2022-09-13T15:35:00;9.15;;;1.15;;
22557;SDS011;11445;53.816;8.902;2022-09-13T15:37:32;6.75;;;1.10;;
22557;SDS011;11445;53.816;8.902;2022-09-13T15:40:06;5.55;;;1.38;;
22557;SDS011;11445;53.816;8.902;2022-09-13T15:42:40;7.63;;;1.30;;
22557;SDS011;11445;53.816;8.902;2022-09-13T15:45:11;7.50;;;0.98;;
22557;SDS011;11445;53.816;8.902;2022-09-13T15:47:38;4.50;;;0.90;;
22557;SDS011;11445;53.816;8.902;2022-09-13T15:50:08;11.70;;;1.20;;
22557;SDS011;11445;53.816;8.902;2022-09-13T15:52:51;5.70;;;0.88;;